sensor_id;sensor_type;location;lat;lon;timestamp;P1;durP1;ratioP1;P2;durP2;ratioP2
26502;SDS011;14177;51.520;6.764;2022-09-25T00:01:08;8.82;;;2.25;;
26502;SDS011;14177;51.520;6.764;2022-09-25T00:03:36;4.63;;;1.88;;
26502;SDS011;14177;51.520;6.764;2022-09-25T00:06:08;6.85;;;1.95;;
26502;SDS011;14177;51.520;6.764;2022-09-25T00:08:47;7.15;;;2.20;;
26502;SDS011;14177;51.520;6.764;2022-09-25T00:11:16;8.85;;;1.90;;
26502;SDS011;14177;51.520;6.764;2022-09-25T00:13:47;6.00;;;1.90;;
26502;SDS011;14177;51.520;6.764;2022-09-25T00:16:16;7.25;;;2.13;;
26502;SDS011;14177;51.520;6.764;2022-09-25T00:18:46;6.95;;;2.15;;
26502;SDS011;14177;51.520;6.764;2022-09-25T00:21:31;5.90;;;2.10;;
26502;SDS011;14177;51.520;6.764;2022-09-25T00:24:01;7.10;;;2.33;;
26502;SDS011;14177;51.520;6.764;2022-09-25T00:26:33;7.38;;;2.38;;
26502;SDS011;14177;51.520;6.764;2022-09-25T00:29:04;9.02;;;2.22;;
26502;SDS011;14177;51.520;6.764;2022-09-25T00:31:33;8.98;;;2.50;;
26502;SDS011;14177;51.520;6.764;2022-09-25T00:34:01;5.15;;;2.55;;
26502;SDS011;14177;51.520;6.764;2022-09-25T00:36:31;7.10;;;2.33;;
26502;SDS011;14177;51.520;6.764;2022-09-25T00:38:59;7.05;;;2.45;;
26502;SDS011;14177;51.520;6.764;2022-09-25T00:41:27;7.65;;;2.67;;
26502;SDS011;14177;51.520;6.764;2022-09-25T00:43:57;7.57;;;2.70;;
26502;SDS011;14177;51.520;6.764;2022-09-25T00:49:10;6.97;;;2.80;;
26502;SDS011;14177;51.520;6.764;2022-09-25T00:51:56;9.65;;;2.65;;
26502;SDS011;14177;51.520;6.764;2022-09-25T00:54:37;7.18;;;2.38;;
26502;SDS011;14177;51.520;6.764;2022-09-25T00:57:10;6.60;;;2.83;;
26502;SDS011;14177;51.520;6.764;2022-09-25T00:59:51;9.38;;;2.63;;
26502;SDS011;14177;51.520;6.764;2022-09-25T01:02:27;8.60;;;2.50;;
26502;SDS011;14177;51.520;6.764;2022-09-25T01:05:06;6.85;;;2.60;;
26502;SDS011;14177;51.520;6.764;2022-09-25T01:07:38;9.30;;;2.63;;
26502;SDS011;14177;51.520;6.764;2022-09-25T01:10:09;6.60;;;2.55;;
26502;SDS011;14177;51.520;6.764;2022-09-25T01:12:39;7.32;;;2.60;;
26502;SDS011;14177;51.520;6.764;2022-09-25T01:15:14;8.50;;;2.45;;
26502;SDS011;14177;51.520;6.764;2022-09-25T01:17:54;11.95;;;2.60;;
26502;SDS011;14177;51.520;6.764;2022-09-25T01:29:41;7.47;;;1.88;;
26502;SDS011;14177;51.520;6.764;2022-09-25T01:32:40;7.85;;;1.98;;
26502;SDS011;14177;51.520;6.764;2022-09-25T01:35:34;4.90;;;1.88;;
26502;SDS011;14177;51.520;6.764;2022-09-25T01:44:02;4.72;;;1.83;;
26502;SDS011;14177;51.520;6.764;2022-09-25T01:46:41;8.88;;;1.67;;
26502;SDS011;14177;51.520;6.764;2022-09-25T01:49:35;8.98;;;2.00;;
26502;SDS011;14177;51.520;6.764;2022-09-25T01:52:37;8.77;;;2.00;;
26502;SDS011;14177;51.520;6.764;2022-09-25T01:55:18;9.55;;;1.73;;
26502;SDS011;14177;51.520;6.764;2022-09-25T02:00:57;7.90;;;1.55;;
26502;SDS011;14177;51.520;6.764;2022-09-25T02:03:45;6.22;;;1.58;;
26502;SDS011;14177;51.520;6.764;2022-09-25T02:06:17;3.83;;;1.55;;
26502;SDS011;14177;51.520;6.764;2022-09-25T02:09:09;9.60;;;1.80;;
26502;SDS011;14177;51.520;6.764;2022-09-25T02:11:46;9.25;;;1.55;;
26502;SDS011;14177;51.520;6.764;2022-09-25T02:16:59;6.28;;;1.50;;
26502;SDS011;14177;51.520;6.764;2022-09-25T02:19:30;6.13;;;1.75;;
26502;SDS011;14177;51.520;6.764;2022-09-25T02:22:17;5.90;;;1.90;;
26502;SDS011;14177;51.520;6.764;2022-09-25T02:25:09;5.60;;;1.75;;
26502;SDS011;14177;51.520;6.764;2022-09-25T02:27:58;5.30;;;2.08;;
26502;SDS011;14177;51.520;6.764;2022-09-25T02:30:27;8.35;;;2.10;;
26502;SDS011;14177;51.520;6.764;2022-09-25T02:32:54;5.50;;;2.30;;
26502;SDS011;14177;51.520;6.764;2022-09-25T02:35:24;6.75;;;2.80;;
26502;SDS011;14177;51.520;6.764;2022-09-25T02:37:51;11.68;;;3.53;;
26502;SDS011;14177;51.520;6.764;2022-09-25T02:40:26;10.07;;;4.07;;
26502;SDS011;14177;51.520;6.764;2022-09-25T02:49:39;7.72;;;3.50;;
26502;SDS011;14177;51.520;6.764;2022-09-25T02:52:59;9.50;;;3.97;;
26502;SDS011;14177;51.520;6.764;2022-09-25T02:55:53;7.80;;;2.63;;
26502;SDS011;14177;51.520;6.764;2022-09-25T03:01:17;6.10;;;2.38;;
26502;SDS011;14177;51.520;6.764;2022-09-25T03:03:48;11.60;;;3.20;;
26502;SDS011;14177;51.520;6.764;2022-09-25T03:06:22;10.15;;;2.92;;
26502;SDS011;14177;51.520;6.764;2022-09-25T03:08:52;5.80;;;2.10;;
26502;SDS011;14177;51.520;6.764;2022-09-25T03:11:23;5.45;;;2.45;;
26502;SDS011;14177;51.520;6.764;2022-09-25T03:13:55;4.90;;;2.08;;
26502;SDS011;14177;51.520;6.764;2022-09-25T03:19:15;7.78;;;2.10;;
26502;SDS011;14177;51.520;6.764;2022-09-25T03:21:45;6.63;;;2.85;;
26502;SDS011;14177;51.520;6.764;2022-09-25T03:24:13;6.53;;;1.83;;
26502;SDS011;14177;51.520;6.764;2022-09-25T03:26:41;10.27;;;2.22;;
26502;SDS011;14177;51.520;6.764;2022-09-25T03:29:10;7.03;;;2.00;;
26502;SDS011;14177;51.520;6.764;2022-09-25T03:31:40;5.80;;;2.10;;
26502;SDS011;14177;51.520;6.764;2022-09-25T03:34:11;5.93;;;2.00;;
26502;SDS011;14177;51.520;6.764;2022-09-25T03:36:43;6.45;;;1.88;;
26502;SDS011;14177;51.520;6.764;2022-09-25T03:39:13;4.63;;;1.80;;
26502;SDS011;14177;51.520;6.764;2022-09-25T03:41:43;7.60;;;1.90;;
26502;SDS011;14177;51.520;6.764;2022-09-25T03:44:10;7.95;;;1.95;;
26502;SDS011;14177;51.520;6.764;2022-09-25T03:46:37;6.32;;;2.00;;
26502;SDS011;14177;51.520;6.764;2022-09-25T03:49:05;6.35;;;1.83;;
26502;SDS011;14177;51.520;6.764;2022-09-25T03:51:32;3.95;;;1.60;;
26502;SDS011;14177;51.520;6.764;2022-09-25T03:54:00;12.40;;;1.85;;
26502;SDS011;14177;51.520;6.764;2022-09-25T03:56:29;8.38;;;2.22;;
26502;SDS011;14177;51.520;6.764;2022-09-25T03:58:56;5.13;;;1.70;;
26502;SDS011;14177;51.520;6.764;2022-09-25T04:01:24;5.25;;;1.75;;
26502;SDS011;14177;51.520;6.764;2022-09-25T04:03:53;8.60;;;1.80;;
26502;SDS011;14177;51.520;6.764;2022-09-25T04:06:21;5.50;;;1.80;;
26502;SDS011;14177;51.520;6.764;2022-09-25T04:08:51;7.88;;;1.70;;
26502;SDS011;14177;51.520;6.764;2022-09-25T04:11:19;9.13;;;1.75;;
26502;SDS011;14177;51.520;6.764;2022-09-25T04:13:49;5.38;;;1.63;;
26502;SDS011;14177;51.520;6.764;2022-09-25T04:16:18;5.32;;;1.75;;
26502;SDS011;14177;51.520;6.764;2022-09-25T04:18:46;4.05;;;1.95;;
26502;SDS011;14177;51.520;6.764;2022-09-25T04:21:16;7.97;;;2.47;;
26502;SDS011;14177;51.520;6.764;2022-09-25T04:23:43;6.82;;;2.67;;
26502;SDS011;14177;51.520;6.764;2022-09-25T04:26:30;8.15;;;2.47;;
26502;SDS011;14177;51.520;6.764;2022-09-25T04:28:57;10.45;;;2.80;;
26502;SDS011;14177;51.520;6.764;2022-09-25T04:31:27;6.07;;;2.67;;
26502;SDS011;14177;51.520;6.764;2022-09-25T04:33:55;7.40;;;2.63;;
26502;SDS011;14177;51.520;6.764;2022-09-25T04:36:22;6.50;;;1.77;;
26502;SDS011;14177;51.520;6.764;2022-09-25T04:38:49;7.97;;;2.40;;
26502;SDS011;14177;51.520;6.764;2022-09-25T04:41:16;8.32;;;2.22;;
26502;SDS011;14177;51.520;6.764;2022-09-25T04:43:45;5.85;;;2.20;;
26502;SDS011;14177;51.520;6.764;2022-09-25T04:46:13;7.70;;;2.35;;
26502;SDS011;14177;51.520;6.764;2022-09-25T04:48:47;6.50;;;2.17;;
26502;SDS011;14177;51.520;6.764;2022-09-25T04:51:15;4.97;;;1.80;;
26502;SDS011;14177;51.520;6.764;2022-09-25T04:53:42;8.57;;;2.20;;
26502;SDS011;14177;51.520;6.764;2022-09-25T04:56:08;9.23;;;2.28;;
26502;SDS011;14177;51.520;6.764;2022-09-25T04:58:45;5.57;;;1.70;;
26502;SDS011;14177;51.520;6.764;2022-09-25T05:01:15;7.85;;;1.90;;
26502;SDS011;14177;51.520;6.764;2022-09-25T05:03:48;10.02;;;1.80;;
26502;SDS011;14177;51.520;6.764;2022-09-25T05:06:19;7.38;;;1.90;;
26502;SDS011;14177;51.520;6.764;2022-09-25T05:08:46;8.43;;;1.80;;
26502;SDS011;14177;51.520;6.764;2022-09-25T05:11:18;6.50;;;1.98;;
26502;SDS011;14177;51.520;6.764;2022-09-25T05:13:48;7.60;;;2.25;;
26502;SDS011;14177;51.520;6.764;2022-09-25T05:16:16;8.82;;;2.50;;
26502;SDS011;14177;51.520;6.764;2022-09-25T05:18:44;13.30;;;3.58;;
26502;SDS011;14177;51.520;6.764;2022-09-25T05:21:11;9.57;;;3.28;;
26502;SDS011;14177;51.520;6.764;2022-09-25T05:23:39;8.38;;;2.88;;
26502;SDS011;14177;51.520;6.764;2022-09-25T05:26:08;7.20;;;2.85;;
26502;SDS011;14177;51.520;6.764;2022-09-25T05:28:35;11.48;;;3.72;;
26502;SDS011;14177;51.520;6.764;2022-09-25T05:31:03;8.02;;;3.08;;
26502;SDS011;14177;51.520;6.764;2022-09-25T05:33:31;6.70;;;2.85;;
26502;SDS011;14177;51.520;6.764;2022-09-25T05:36:00;6.25;;;2.35;;
26502;SDS011;14177;51.520;6.764;2022-09-25T05:38:33;9.30;;;2.70;;
26502;SDS011;14177;51.520;6.764;2022-09-25T05:41:03;7.88;;;2.40;;
26502;SDS011;14177;51.520;6.764;2022-09-25T05:43:33;6.95;;;2.30;;
26502;SDS011;14177;51.520;6.764;2022-09-25T05:46:08;8.70;;;2.95;;
26502;SDS011;14177;51.520;6.764;2022-09-25T05:48:37;8.20;;;3.08;;
26502;SDS011;14177;51.520;6.764;2022-09-25T05:51:04;13.50;;;3.38;;
26502;SDS011;14177;51.520;6.764;2022-09-25T05:53:31;12.70;;;3.95;;
26502;SDS011;14177;51.520;6.764;2022-09-25T05:55:59;5.80;;;3.55;;
26502;SDS011;14177;51.520;6.764;2022-09-25T05:58:29;8.55;;;3.58;;
26502;SDS011;14177;51.520;6.764;2022-09-25T06:00:59;10.10;;;3.25;;
26502;SDS011;14177;51.520;6.764;2022-09-25T06:03:29;9.18;;;3.58;;
26502;SDS011;14177;51.520;6.764;2022-09-25T06:05:58;6.47;;;2.88;;
26502;SDS011;14177;51.520;6.764;2022-09-25T06:08:26;4.00;;;2.17;;
26502;SDS011;14177;51.520;6.764;2022-09-25T06:10:56;11.70;;;2.72;;
26502;SDS011;14177;51.520;6.764;2022-09-25T06:13:26;7.80;;;2.97;;
26502;SDS011;14177;51.520;6.764;2022-09-25T06:15:55;8.48;;;3.38;;
26502;SDS011;14177;51.520;6.764;2022-09-25T06:18:22;4.40;;;2.80;;
26502;SDS011;14177;51.520;6.764;2022-09-25T06:20:51;9.88;;;3.10;;
26502;SDS011;14177;51.520;6.764;2022-09-25T06:23:29;9.77;;;3.03;;
26502;SDS011;14177;51.520;6.764;2022-09-25T06:26:00;11.32;;;2.97;;
26502;SDS011;14177;51.520;6.764;2022-09-25T06:28:30;7.05;;;3.00;;
26502;SDS011;14177;51.520;6.764;2022-09-25T06:30:59;8.80;;;2.78;;
26502;SDS011;14177;51.520;6.764;2022-09-25T06:33:30;5.63;;;2.78;;
26502;SDS011;14177;51.520;6.764;2022-09-25T06:35:59;12.05;;;3.22;;
26502;SDS011;14177;51.520;6.764;2022-09-25T06:38:31;8.23;;;3.45;;
26502;SDS011;14177;51.520;6.764;2022-09-25T06:40:59;12.50;;;3.65;;
26502;SDS011;14177;51.520;6.764;2022-09-25T06:43:28;6.95;;;2.85;;
26502;SDS011;14177;51.520;6.764;2022-09-25T06:45:59;9.38;;;3.28;;
26502;SDS011;14177;51.520;6.764;2022-09-25T06:48:29;11.07;;;3.42;;
26502;SDS011;14177;51.520;6.764;2022-09-25T06:50:59;10.40;;;2.90;;
26502;SDS011;14177;51.520;6.764;2022-09-25T06:53:27;4.75;;;2.30;;
26502;SDS011;14177;51.520;6.764;2022-09-25T06:55:56;12.23;;;2.10;;
26502;SDS011;14177;51.520;6.764;2022-09-25T06:58:26;5.93;;;2.03;;
26502;SDS011;14177;51.520;6.764;2022-09-25T07:00:56;8.43;;;1.92;;
26502;SDS011;14177;51.520;6.764;2022-09-25T07:03:23;7.53;;;2.25;;
26502;SDS011;14177;51.520;6.764;2022-09-25T07:06:10;6.15;;;1.90;;
26502;SDS011;14177;51.520;6.764;2022-09-25T07:08:59;9.10;;;2.20;;
26502;SDS011;14177;51.520;6.764;2022-09-25T07:11:28;8.30;;;2.05;;
26502;SDS011;14177;51.520;6.764;2022-09-25T07:13:59;5.90;;;1.95;;
26502;SDS011;14177;51.520;6.764;2022-09-25T07:16:27;4.50;;;1.80;;
26502;SDS011;14177;51.520;6.764;2022-09-25T07:18:58;5.70;;;1.90;;
26502;SDS011;14177;51.520;6.764;2022-09-25T07:21:26;5.88;;;2.00;;
26502;SDS011;14177;51.520;6.764;2022-09-25T07:24:04;5.93;;;2.17;;
26502;SDS011;14177;51.520;6.764;2022-09-25T07:26:32;9.02;;;1.90;;
26502;SDS011;14177;51.520;6.764;2022-09-25T07:29:07;7.18;;;1.80;;
26502;SDS011;14177;51.520;6.764;2022-09-25T07:31:39;5.22;;;1.92;;
26502;SDS011;14177;51.520;6.764;2022-09-25T07:34:09;8.77;;;2.20;;
26502;SDS011;14177;51.520;6.764;2022-09-25T07:36:40;7.28;;;1.85;;
26502;SDS011;14177;51.520;6.764;2022-09-25T07:39:10;8.88;;;2.30;;
26502;SDS011;14177;51.520;6.764;2022-09-25T07:41:44;9.43;;;2.78;;
26502;SDS011;14177;51.520;6.764;2022-09-25T07:44:15;6.78;;;2.53;;
26502;SDS011;14177;51.520;6.764;2022-09-25T07:46:56;5.80;;;2.40;;
26502;SDS011;14177;51.520;6.764;2022-09-25T07:49:23;8.40;;;2.28;;
26502;SDS011;14177;51.520;6.764;2022-09-25T07:51:51;9.98;;;2.20;;
26502;SDS011;14177;51.520;6.764;2022-09-25T07:54:18;4.55;;;2.28;;
26502;SDS011;14177;51.520;6.764;2022-09-25T07:56:47;10.52;;;2.65;;
26502;SDS011;14177;51.520;6.764;2022-09-25T07:59:14;11.95;;;2.78;;
26502;SDS011;14177;51.520;6.764;2022-09-25T08:01:42;5.80;;;1.80;;
26502;SDS011;14177;51.520;6.764;2022-09-25T08:06:44;5.45;;;1.40;;
26502;SDS011;14177;51.520;6.764;2022-09-25T08:09:11;9.02;;;1.60;;
26502;SDS011;14177;51.520;6.764;2022-09-25T08:11:37;13.73;;;1.45;;
26502;SDS011;14177;51.520;6.764;2022-09-25T08:14:04;7.75;;;1.48;;
26502;SDS011;14177;51.520;6.764;2022-09-25T08:16:31;6.00;;;1.45;;
26502;SDS011;14177;51.520;6.764;2022-09-25T08:18:58;3.92;;;1.13;;
26502;SDS011;14177;51.520;6.764;2022-09-25T08:21:25;5.35;;;1.60;;
26502;SDS011;14177;51.520;6.764;2022-09-25T08:23:52;7.40;;;1.70;;
26502;SDS011;14177;51.520;6.764;2022-09-25T08:26:20;10.68;;;1.90;;
26502;SDS011;14177;51.520;6.764;2022-09-25T08:28:48;4.30;;;1.17;;
26502;SDS011;14177;51.520;6.764;2022-09-25T08:31:16;4.60;;;1.02;;
26502;SDS011;14177;51.520;6.764;2022-09-25T08:33:44;7.90;;;1.30;;
26502;SDS011;14177;51.520;6.764;2022-09-25T08:36:13;6.18;;;0.90;;
26502;SDS011;14177;51.520;6.764;2022-09-25T08:38:41;9.95;;;1.30;;
26502;SDS011;14177;51.520;6.764;2022-09-25T08:43:53;4.97;;;1.33;;
26502;SDS011;14177;51.520;6.764;2022-09-25T08:50:20;10.05;;;1.35;;
26502;SDS011;14177;51.520;6.764;2022-09-25T08:52:50;10.18;;;1.40;;
26502;SDS011;14177;51.520;6.764;2022-09-25T08:55:33;5.00;;;1.30;;
26502;SDS011;14177;51.520;6.764;2022-09-25T08:58:27;8.18;;;1.17;;
26502;SDS011;14177;51.520;6.764;2022-09-25T09:00:59;9.35;;;0.90;;
26502;SDS011;14177;51.520;6.764;2022-09-25T09:03:32;8.38;;;1.15;;
26502;SDS011;14177;51.520;6.764;2022-09-25T09:06:13;4.75;;;1.05;;
26502;SDS011;14177;51.520;6.764;2022-09-25T09:08:43;2.83;;;0.60;;
26502;SDS011;14177;51.520;6.764;2022-09-25T09:11:43;5.43;;;1.00;;
26502;SDS011;14177;51.520;6.764;2022-09-25T09:14:22;5.07;;;1.05;;
26502;SDS011;14177;51.520;6.764;2022-09-25T09:17:06;7.03;;;1.15;;
26502;SDS011;14177;51.520;6.764;2022-09-25T09:19:50;3.40;;;0.90;;
26502;SDS011;14177;51.520;6.764;2022-09-25T09:22:24;6.25;;;1.15;;
26502;SDS011;14177;51.520;6.764;2022-09-25T09:25:27;7.00;;;0.80;;
26502;SDS011;14177;51.520;6.764;2022-09-25T09:39:23;3.47;;;1.00;;
26502;SDS011;14177;51.520;6.764;2022-09-25T09:42:13;3.80;;;0.80;;
26502;SDS011;14177;51.520;6.764;2022-09-25T09:50:31;2.72;;;1.17;;
26502;SDS011;14177;51.520;6.764;2022-09-25T09:53:26;3.78;;;0.85;;
26502;SDS011;14177;51.520;6.764;2022-09-25T09:59:05;3.55;;;0.88;;
26502;SDS011;14177;51.520;6.764;2022-09-25T10:01:53;2.00;;;0.60;;
26502;SDS011;14177;51.520;6.764;2022-09-25T10:05:00;9.13;;;1.17;;
26502;SDS011;14177;51.520;6.764;2022-09-25T10:07:56;6.95;;;0.85;;
26502;SDS011;14177;51.520;6.764;2022-09-25T10:10:32;6.45;;;0.82;;
26502;SDS011;14177;51.520;6.764;2022-09-25T10:16:05;5.47;;;0.93;;
26502;SDS011;14177;51.520;6.764;2022-09-25T10:21:32;3.30;;;0.70;;
26502;SDS011;14177;51.520;6.764;2022-09-25T10:24:44;3.88;;;0.40;;
26502;SDS011;14177;51.520;6.764;2022-09-25T10:27:25;2.45;;;0.50;;
26502;SDS011;14177;51.520;6.764;2022-09-25T10:30:11;3.30;;;0.60;;
26502;SDS011;14177;51.520;6.764;2022-09-25T10:32:54;2.92;;;0.68;;
26502;SDS011;14177;51.520;6.764;2022-09-25T10:35:43;4.32;;;0.57;;
26502;SDS011;14177;51.520;6.764;2022-09-25T10:41:18;2.58;;;0.43;;
26502;SDS011;14177;51.520;6.764;2022-09-25T10:43:54;3.70;;;0.68;;
26502;SDS011;14177;51.520;6.764;2022-09-25T10:46:30;8.48;;;0.88;;
26502;SDS011;14177;51.520;6.764;2022-09-25T10:49:29;5.40;;;0.47;;
26502;SDS011;14177;51.520;6.764;2022-09-25T10:55:32;6.13;;;0.70;;
26502;SDS011;14177;51.520;6.764;2022-09-25T10:58:13;7.43;;;0.82;;
26502;SDS011;14177;51.520;6.764;2022-09-25T11:04:41;3.67;;;0.65;;
26502;SDS011;14177;51.520;6.764;2022-09-25T11:07:14;3.72;;;0.80;;
26502;SDS011;14177;51.520;6.764;2022-09-25T11:10:17;3.70;;;0.70;;
26502;SDS011;14177;51.520;6.764;2022-09-25T11:13:23;4.18;;;0.63;;
26502;SDS011;14177;51.520;6.764;2022-09-25T11:16:40;3.70;;;0.60;;
26502;SDS011;14177;51.520;6.764;2022-09-25T11:19:30;3.92;;;0.70;;
26502;SDS011;14177;51.520;6.764;2022-09-25T11:22:49;3.40;;;0.65;;
26502;SDS011;14177;51.520;6.764;2022-09-25T11:29:03;2.95;;;0.55;;
26502;SDS011;14177;51.520;6.764;2022-09-25T11:36:31;4.70;;;0.68;;
26502;SDS011;14177;51.520;6.764;2022-09-25T11:39:11;4.82;;;0.50;;
26502;SDS011;14177;51.520;6.764;2022-09-25T11:42:12;6.07;;;0.60;;
26502;SDS011;14177;51.520;6.764;2022-09-25T11:45:06;1.45;;;0.22;;
26502;SDS011;14177;51.520;6.764;2022-09-25T11:47:53;1.63;;;0.45;;
26502;SDS011;14177;51.520;6.764;2022-09-25T11:50:47;4.05;;;0.50;;
26502;SDS011;14177;51.520;6.764;2022-09-25T11:56:55;5.35;;;1.33;;
26502;SDS011;14177;51.520;6.764;2022-09-25T12:05:23;4.65;;;0.70;;
26502;SDS011;14177;51.520;6.764;2022-09-25T12:09:33;2.17;;;0.55;;
26502;SDS011;14177;51.520;6.764;2022-09-25T12:20:18;3.13;;;0.52;;
26502;SDS011;14177;51.520;6.764;2022-09-25T12:31:57;1.80;;;0.60;;
26502;SDS011;14177;51.520;6.764;2022-09-25T12:35:01;1.70;;;0.40;;
26502;SDS011;14177;51.520;6.764;2022-09-25T12:41:08;4.00;;;0.73;;
26502;SDS011;14177;51.520;6.764;2022-09-25T12:46:30;1.92;;;0.38;;
26502;SDS011;14177;51.520;6.764;2022-09-25T12:51:53;2.50;;;0.40;;
26502;SDS011;14177;51.520;6.764;2022-09-25T12:57:11;1.65;;;0.30;;
26502;SDS011;14177;51.520;6.764;2022-09-25T13:05:11;6.07;;;0.68;;
26502;SDS011;14177;51.520;6.764;2022-09-25T13:07:53;0.98;;;0.30;;
26502;SDS011;14177;51.520;6.764;2022-09-25T13:11:01;1.77;;;0.35;;
26502;SDS011;14177;51.520;6.764;2022-09-25T13:13:45;6.57;;;0.55;;
26502;SDS011;14177;51.520;6.764;2022-09-25T13:16:18;2.50;;;0.90;;
26502;SDS011;14177;51.520;6.764;2022-09-25T13:18:48;3.53;;;0.70;;
26502;SDS011;14177;51.520;6.764;2022-09-25T13:21:38;4.72;;;0.40;;
26502;SDS011;14177;51.520;6.764;2022-09-25T13:24:10;2.80;;;0.40;;
26502;SDS011;14177;51.520;6.764;2022-09-25T13:26:43;3.78;;;0.50;;
26502;SDS011;14177;51.520;6.764;2022-09-25T13:29:22;2.13;;;0.30;;
26502;SDS011;14177;51.520;6.764;2022-09-25T13:32:02;1.52;;;0.30;;
26502;SDS011;14177;51.520;6.764;2022-09-25T13:34:43;2.05;;;0.20;;
26502;SDS011;14177;51.520;6.764;2022-09-25T13:37:11;4.10;;;0.88;;
26502;SDS011;14177;51.520;6.764;2022-09-25T13:39:43;2.08;;;0.30;;
26502;SDS011;14177;51.520;6.764;2022-09-25T13:42:36;1.35;;;0.40;;
26502;SDS011;14177;51.520;6.764;2022-09-25T13:47:50;1.38;;;0.55;;
26502;SDS011;14177;51.520;6.764;2022-09-25T13:53:11;2.72;;;0.68;;
26502;SDS011;14177;51.520;6.764;2022-09-25T13:58:21;7.15;;;2.67;;
26502;SDS011;14177;51.520;6.764;2022-09-25T14:00:55;3.13;;;0.90;;
26502;SDS011;14177;51.520;6.764;2022-09-25T14:06:22;4.43;;;0.70;;
26502;SDS011;14177;51.520;6.764;2022-09-25T14:09:15;3.47;;;0.50;;
26502;SDS011;14177;51.520;6.764;2022-09-25T14:11:51;3.83;;;0.68;;
26502;SDS011;14177;51.520;6.764;2022-09-25T14:14:29;2.50;;;0.60;;
26502;SDS011;14177;51.520;6.764;2022-09-25T14:17:10;1.48;;;0.40;;
26502;SDS011;14177;51.520;6.764;2022-09-25T14:19:42;5.00;;;0.40;;
26502;SDS011;14177;51.520;6.764;2022-09-25T14:22:17;3.78;;;0.52;;
26502;SDS011;14177;51.520;6.764;2022-09-25T14:24:58;3.95;;;0.75;;
26502;SDS011;14177;51.520;6.764;2022-09-25T14:27:26;3.78;;;0.80;;
26502;SDS011;14177;51.520;6.764;2022-09-25T14:30:06;2.35;;;0.45;;
26502;SDS011;14177;51.520;6.764;2022-09-25T14:44:38;1.65;;;0.40;;
26502;SDS011;14177;51.520;6.764;2022-09-25T14:47:51;4.28;;;0.43;;
26502;SDS011;14177;51.520;6.764;2022-09-25T14:50:25;3.37;;;0.77;;
26502;SDS011;14177;51.520;6.764;2022-09-25T14:53:02;2.05;;;0.70;;
26502;SDS011;14177;51.520;6.764;2022-09-25T14:55:38;1.48;;;0.63;;
26502;SDS011;14177;51.520;6.764;2022-09-25T14:58:13;2.17;;;0.50;;
26502;SDS011;14177;51.520;6.764;2022-09-25T15:00:48;2.00;;;0.47;;
26502;SDS011;14177;51.520;6.764;2022-09-25T15:03:19;1.67;;;0.40;;
26502;SDS011;14177;51.520;6.764;2022-09-25T15:05:52;2.53;;;0.40;;
26502;SDS011;14177;51.520;6.764;2022-09-25T15:08:22;3.90;;;0.60;;
26502;SDS011;14177;51.520;6.764;2022-09-25T15:11:13;1.85;;;0.40;;
26502;SDS011;14177;51.520;6.764;2022-09-25T15:13:43;3.60;;;0.60;;
26502;SDS011;14177;51.520;6.764;2022-09-25T15:16:16;2.30;;;0.40;;
26502;SDS011;14177;51.520;6.764;2022-09-25T15:19:13;0.98;;;0.40;;
26502;SDS011;14177;51.520;6.764;2022-09-25T15:21:53;2.22;;;0.55;;
26502;SDS011;14177;51.520;6.764;2022-09-25T15:24:22;2.90;;;0.70;;
26502;SDS011;14177;51.520;6.764;2022-09-25T15:26:54;1.45;;;0.50;;
26502;SDS011;14177;51.520;6.764;2022-09-25T15:29:33;1.35;;;0.43;;
26502;SDS011;14177;51.520;6.764;2022-09-25T15:32:20;3.35;;;0.80;;
26502;SDS011;14177;51.520;6.764;2022-09-25T15:35:14;1.73;;;0.40;;
26502;SDS011;14177;51.520;6.764;2022-09-25T15:37:45;2.78;;;0.60;;
26502;SDS011;14177;51.520;6.764;2022-09-25T15:40:17;2.50;;;0.63;;
26502;SDS011;14177;51.520;6.764;2022-09-25T15:42:50;2.58;;;0.40;;
26502;SDS011;14177;51.520;6.764;2022-09-25T15:48:12;1.70;;;0.52;;
26502;SDS011;14177;51.520;6.764;2022-09-25T15:50:47;2.13;;;0.43;;
26502;SDS011;14177;51.520;6.764;2022-09-25T15:53:16;2.60;;;0.60;;
26502;SDS011;14177;51.520;6.764;2022-09-25T15:58:34;1.63;;;0.40;;
26502;SDS011;14177;51.520;6.764;2022-09-25T16:01:12;0.88;;;0.50;;
26502;SDS011;14177;51.520;6.764;2022-09-25T16:04:04;2.50;;;0.80;;
26502;SDS011;14177;51.520;6.764;2022-09-25T16:06:53;1.80;;;0.57;;
26502;SDS011;14177;51.520;6.764;2022-09-25T16:09:22;2.85;;;0.63;;
26502;SDS011;14177;51.520;6.764;2022-09-25T16:14:51;1.15;;;0.68;;
26502;SDS011;14177;51.520;6.764;2022-09-25T16:17:21;2.92;;;0.63;;
26502;SDS011;14177;51.520;6.764;2022-09-25T16:22:39;2.88;;;0.65;;
26502;SDS011;14177;51.520;6.764;2022-09-25T16:25:17;1.42;;;0.50;;
26502;SDS011;14177;51.520;6.764;2022-09-25T16:27:53;4.70;;;0.90;;
26502;SDS011;14177;51.520;6.764;2022-09-25T16:30:28;2.70;;;0.90;;
26502;SDS011;14177;51.520;6.764;2022-09-25T16:32:57;3.10;;;0.90;;
26502;SDS011;14177;51.520;6.764;2022-09-25T16:35:34;3.38;;;0.82;;
26502;SDS011;14177;51.520;6.764;2022-09-25T16:38:25;5.90;;;0.80;;
26502;SDS011;14177;51.520;6.764;2022-09-25T16:43:34;1.02;;;0.57;;
26502;SDS011;14177;51.520;6.764;2022-09-25T16:46:14;1.90;;;0.63;;
26502;SDS011;14177;51.520;6.764;2022-09-25T16:48:56;2.38;;;0.50;;
26502;SDS011;14177;51.520;6.764;2022-09-25T16:51:25;5.47;;;0.80;;
26502;SDS011;14177;51.520;6.764;2022-09-25T16:53:58;1.88;;;0.52;;
26502;SDS011;14177;51.520;6.764;2022-09-25T16:56:26;2.30;;;0.70;;
26502;SDS011;14177;51.520;6.764;2022-09-25T16:58:56;2.15;;;0.68;;
26502;SDS011;14177;51.520;6.764;2022-09-25T17:01:25;1.05;;;0.40;;
26502;SDS011;14177;51.520;6.764;2022-09-25T17:03:53;1.40;;;0.50;;
26502;SDS011;14177;51.520;6.764;2022-09-25T17:06:25;6.07;;;0.75;;
26502;SDS011;14177;51.520;6.764;2022-09-25T17:08:55;1.95;;;0.60;;
26502;SDS011;14177;51.520;6.764;2022-09-25T17:11:25;3.05;;;0.70;;
26502;SDS011;14177;51.520;6.764;2022-09-25T17:13:51;3.35;;;0.80;;
26502;SDS011;14177;51.520;6.764;2022-09-25T17:16:18;1.88;;;0.65;;
26502;SDS011;14177;51.520;6.764;2022-09-25T17:18:45;3.97;;;0.70;;
26502;SDS011;14177;51.520;6.764;2022-09-25T17:21:13;5.10;;;0.90;;
26502;SDS011;14177;51.520;6.764;2022-09-25T17:23:41;2.03;;;0.73;;
26502;SDS011;14177;51.520;6.764;2022-09-25T17:26:12;3.20;;;0.50;;
26502;SDS011;14177;51.520;6.764;2022-09-25T17:28:49;2.55;;;0.70;;
26502;SDS011;14177;51.520;6.764;2022-09-25T17:31:18;2.63;;;0.80;;
26502;SDS011;14177;51.520;6.764;2022-09-25T17:33:47;6.38;;;0.85;;
26502;SDS011;14177;51.520;6.764;2022-09-25T17:36:15;4.57;;;0.80;;
26502;SDS011;14177;51.520;6.764;2022-09-25T17:38:43;4.38;;;0.60;;
26502;SDS011;14177;51.520;6.764;2022-09-25T17:41:26;2.45;;;0.82;;
26502;SDS011;14177;51.520;6.764;2022-09-25T17:43:57;3.70;;;0.90;;
26502;SDS011;14177;51.520;6.764;2022-09-25T17:46:25;5.50;;;1.17;;
26502;SDS011;14177;51.520;6.764;2022-09-25T17:48:52;2.50;;;0.90;;
26502;SDS011;14177;51.520;6.764;2022-09-25T17:51:23;5.38;;;0.98;;
26502;SDS011;14177;51.520;6.764;2022-09-25T17:53:53;4.40;;;0.85;;
26502;SDS011;14177;51.520;6.764;2022-09-25T17:56:22;1.40;;;0.68;;
26502;SDS011;14177;51.520;6.764;2022-09-25T17:58:51;1.95;;;0.80;;
26502;SDS011;14177;51.520;6.764;2022-09-25T18:01:23;3.45;;;0.80;;
26502;SDS011;14177;51.520;6.764;2022-09-25T18:03:54;4.72;;;1.60;;
26502;SDS011;14177;51.520;6.764;2022-09-25T18:06:24;2.67;;;0.93;;
26502;SDS011;14177;51.520;6.764;2022-09-25T18:08:53;3.60;;;1.83;;
26502;SDS011;14177;51.520;6.764;2022-09-25T18:11:22;4.78;;;2.45;;
26502;SDS011;14177;51.520;6.764;2022-09-25T18:13:50;2.22;;;1.50;;
26502;SDS011;14177;51.520;6.764;2022-09-25T18:16:27;3.63;;;1.92;;
26502;SDS011;14177;51.520;6.764;2022-09-25T18:18:56;3.17;;;1.27;;
26502;SDS011;14177;51.520;6.764;2022-09-25T18:21:42;5.50;;;2.08;;
26502;SDS011;14177;51.520;6.764;2022-09-25T18:26:55;5.82;;;1.60;;